createdAt,value
2022-12-24T00:00:16.710Z,97298.25
2022-12-24T00:02:52.423Z,97292.22
2022-12-24T00:05:22.783Z,97302.72
2022-12-24T00:07:51.623Z,97296.81
2022-12-24T00:10:21.403Z,97298.59
2022-12-24T00:12:55.746Z,97302.91
2022-12-24T00:15:30.854Z,97314.91
2022-12-24T00:18:00.092Z,97316.56
2022-12-24T00:20:29.090Z,97318.97
2022-12-24T00:23:00.427Z,97324.00
2022-12-24T00:25:30.342Z,97346.69
2022-12-24T00:28:00.682Z,97310.53
2022-12-24T00:30:29.486Z,97331.44
2022-12-24T00:32:58.775Z,97329.19
2022-12-24T00:35:28.680Z,97331.59
2022-12-24T00:37:57.385Z,97324.25
2022-12-24T00:40:28.297Z,97333.34
2022-12-24T00:42:56.989Z,97331.66
2022-12-24T00:45:28.215Z,97351.00
2022-12-24T00:47:57.763Z,97339.69
2022-12-24T00:50:26.736Z,97342.72
2022-12-24T00:52:57.879Z,97361.72
2022-12-24T00:55:27.001Z,97348.81
2022-12-24T00:57:56.191Z,97353.34
2022-12-24T01:00:28.973Z,97338.16
2022-12-24T01:02:58.017Z,97338.19
2022-12-24T01:05:28.330Z,97351.53
2022-12-24T01:07:59.528Z,97352.75
2022-12-24T01:10:28.450Z,97365.50
2022-12-24T01:12:57.510Z,97364.84
2022-12-24T01:15:28.484Z,97369.97
2022-12-24T01:17:58.797Z,97368.84
2022-12-24T01:20:31.924Z,97384.25
2022-12-24T01:23:01.000Z,97387.59
2022-12-24T01:25:30.463Z,97383.28
2022-12-24T01:27:59.952Z,97400.41
2022-12-24T01:30:30.906Z,97402.53
2022-12-24T01:33:00.002Z,97412.63
2022-12-24T01:35:30.410Z,97412.88
2022-12-24T01:37:59.381Z,97428.16
2022-12-24T01:40:46.432Z,97411.03
2022-12-24T01:43:25.256Z,97417.38
2022-12-24T01:45:57.888Z,97429.59
2022-12-24T01:48:37.985Z,97427.94
2022-12-24T01:51:11.505Z,97432.38
2022-12-24T01:53:44.119Z,97442.59
2022-12-24T01:56:16.337Z,97441.31
2022-12-24T01:58:50.264Z,97436.66
2022-12-24T02:01:21.055Z,97441.72
2022-12-24T02:03:50.319Z,97442.38
2022-12-24T02:06:22.234Z,97442.34
2022-12-24T02:08:52.089Z,97442.34
2022-12-24T02:11:24.757Z,97456.59
2022-12-24T02:13:57.450Z,97457.09
2022-12-24T02:16:37.578Z,97482.28
2022-12-24T02:19:25.302Z,97468.28
2022-12-24T02:22:03.701Z,97478.59
2022-12-24T02:25:09.436Z,97480.16
2022-12-24T02:27:56.664Z,97490.03
2022-12-24T02:30:33.926Z,97491.19
2022-12-24T02:33:16.045Z,97487.13
2022-12-24T02:35:51.941Z,97493.13
2022-12-24T02:38:29.438Z,97492.22
2022-12-24T02:41:04.738Z,97493.00
2022-12-24T02:43:38.227Z,97497.38
2022-12-24T02:46:13.980Z,97493.13
2022-12-24T02:48:46.361Z,97498.53
2022-12-24T02:51:16.322Z,97511.41
2022-12-24T02:53:45.382Z,97512.03
2022-12-24T02:56:31.523Z,97508.81
2022-12-24T02:59:24.104Z,97518.66
2022-12-24T03:02:02.705Z,97521.22
2022-12-24T03:04:43.593Z,97525.94
2022-12-24T03:07:21.216Z,97516.59
2022-12-24T03:09:59.166Z,97532.16
2022-12-24T03:12:34.319Z,97535.00
2022-12-24T03:15:04.953Z,97542.16
2022-12-24T03:17:45.522Z,97547.47
2022-12-24T03:20:17.473Z,97536.84
2022-12-24T03:22:46.632Z,97559.84
2022-12-24T03:25:16.291Z,97555.09
2022-12-24T03:27:46.616Z,97560.41
2022-12-24T03:30:18.632Z,97558.59
2022-12-24T03:32:49.835Z,97551.19
2022-12-24T03:35:19.027Z,97553.63
2022-12-24T03:37:48.043Z,97547.69
2022-12-24T03:40:17.024Z,97552.88
2022-12-24T03:42:46.249Z,97563.94
2022-12-24T03:45:15.112Z,97571.78
2022-12-24T03:47:43.883Z,97577.91
2022-12-24T03:50:14.982Z,97564.16
2022-12-24T03:52:44.479Z,97583.41
2022-12-24T03:55:14.171Z,97587.75
2022-12-24T03:57:42.879Z,97582.72
2022-12-24T04:00:13.083Z,97588.69
2022-12-24T04:02:42.887Z,97593.13
2022-12-24T04:05:16.319Z,97588.53
2022-12-24T04:07:45.413Z,97589.50
2022-12-24T04:10:15.200Z,97592.13
2022-12-24T04:12:44.032Z,97593.97
2022-12-24T04:15:13.617Z,97592.41
2022-12-24T04:17:42.916Z,97584.97
2022-12-24T04:20:15.943Z,97597.81
2022-12-24T04:22:44.730Z,97607.84
2022-12-24T04:25:13.619Z,97604.72
2022-12-24T04:27:42.720Z,97597.81
2022-12-24T04:30:12.532Z,97619.22
2022-12-24T04:32:41.355Z,97617.63
2022-12-24T04:35:11.055Z,97623.28
2022-12-24T04:37:42.018Z,97625.00
2022-12-24T04:40:12.123Z,97630.06
2022-12-24T04:42:42.904Z,97625.78
2022-12-24T04:45:12.163Z,97634.00
2022-12-24T04:47:41.973Z,97629.78
2022-12-24T04:50:12.076Z,97649.31
2022-12-24T04:52:42.439Z,97644.94
2022-12-24T04:55:11.897Z,97646.53
2022-12-24T04:57:41.544Z,97650.13
2022-12-24T05:00:12.349Z,97640.94
2022-12-24T05:02:41.585Z,97642.72
2022-12-24T05:05:11.890Z,97620.59
2022-12-24T05:07:43.166Z,97637.59
2022-12-24T05:10:13.039Z,97646.13
2022-12-24T05:12:42.442Z,97649.69
2022-12-24T05:15:12.184Z,97639.72
2022-12-24T05:17:43.214Z,97664.41
2022-12-24T05:20:12.195Z,97659.25
2022-12-24T05:22:59.934Z,97660.22
2022-12-24T05:25:50.415Z,97658.63
2022-12-24T05:28:19.257Z,97661.75
2022-12-24T05:30:48.518Z,97653.28
2022-12-24T05:33:17.927Z,97664.28
2022-12-24T05:35:48.247Z,97668.50
2022-12-24T05:38:18.732Z,97659.19
2022-12-24T05:40:48.269Z,97668.31
2022-12-24T05:43:17.182Z,97672.81
2022-12-24T05:45:46.149Z,97681.13
2022-12-24T05:48:14.984Z,97678.63
2022-12-24T05:50:44.126Z,97690.50
2022-12-24T05:53:13.311Z,97684.50
2022-12-24T05:55:43.668Z,97687.75
2022-12-24T05:58:12.415Z,97689.47
2022-12-24T06:00:41.143Z,97685.28
2022-12-24T06:03:10.107Z,97685.84
2022-12-24T06:05:41.655Z,97692.06
2022-12-24T06:08:09.895Z,97677.75
2022-12-24T06:10:38.146Z,97694.53
2022-12-24T06:13:08.544Z,97695.25
2022-12-24T06:15:37.936Z,97697.75
2022-12-24T06:18:07.197Z,97691.03
2022-12-24T06:20:36.558Z,97685.28
2022-12-24T06:23:05.153Z,97690.00
2022-12-24T06:25:34.038Z,97686.88
2022-12-24T06:28:02.904Z,97692.69
2022-12-24T06:30:33.712Z,97699.63
2022-12-24T06:33:02.257Z,97704.53
2022-12-24T06:35:33.401Z,97696.84
2022-12-24T06:38:02.254Z,97702.19
2022-12-24T06:40:31.397Z,97711.78
2022-12-24T06:43:00.083Z,97716.66
2022-12-24T06:45:28.652Z,97707.25
2022-12-24T06:48:00.512Z,97714.72
2022-12-24T06:50:29.850Z,97698.66
2022-12-24T06:52:58.651Z,97706.13
2022-12-24T06:55:27.994Z,97704.75
2022-12-24T06:57:57.580Z,97721.59
2022-12-24T07:00:26.529Z,97742.75
2022-12-24T07:02:55.569Z,97731.28
2022-12-24T07:05:25.696Z,97734.97
2022-12-24T07:07:55.773Z,97730.31
2022-12-24T07:10:24.495Z,97735.69
2022-12-24T07:12:55.033Z,97742.69
2022-12-24T07:15:23.819Z,97732.69
2022-12-24T07:17:52.583Z,97745.56
2022-12-24T07:20:23.021Z,97752.41
2022-12-24T07:22:53.244Z,97732.94
2022-12-24T07:25:21.909Z,97766.22
2022-12-24T07:27:50.437Z,97774.59
2022-12-24T07:30:19.702Z,97786.59
2022-12-24T07:32:49.506Z,97794.34
2022-12-24T07:35:28.072Z,97788.16
2022-12-24T07:37:58.314Z,97798.50
2022-12-24T07:40:27.074Z,97793.16
2022-12-24T07:42:55.340Z,97786.53
2022-12-24T07:45:23.650Z,97790.81
2022-12-24T07:47:52.213Z,97787.44
2022-12-24T07:50:20.735Z,97797.56
2022-12-24T07:52:51.593Z,97767.97
2022-12-24T07:55:22.155Z,97796.94
2022-12-24T07:57:51.773Z,97776.44
2022-12-24T08:00:21.133Z,97799.81
2022-12-24T08:02:49.556Z,97779.22
2022-12-24T08:05:18.826Z,97783.69
2022-12-24T08:07:48.264Z,97787.63
2022-12-24T08:10:17.512Z,97791.00
2022-12-24T08:12:48.950Z,97814.44
2022-12-24T08:15:17.668Z,97793.09
2022-12-24T08:17:46.879Z,97807.66
2022-12-24T08:20:16.245Z,97805.19
2022-12-24T08:22:44.840Z,97807.34
2022-12-24T08:25:14.712Z,97806.50
2022-12-24T08:27:43.791Z,97821.81
2022-12-24T08:30:21.012Z,97833.69
2022-12-24T08:32:52.708Z,97821.88
2022-12-24T08:35:22.617Z,97832.00
2022-12-24T08:37:51.123Z,97850.75
2022-12-24T08:40:19.732Z,97845.44
2022-12-24T08:42:48.561Z,97837.66
2022-12-24T08:45:20.060Z,97842.03
2022-12-24T08:47:50.667Z,97842.97
2022-12-24T08:50:19.649Z,97827.03
2022-12-24T08:52:48.552Z,97855.47
2022-12-24T08:55:20.177Z,97842.25
2022-12-24T08:57:50.854Z,97859.34
2022-12-24T09:00:22.000Z,97871.75
2022-12-24T09:02:50.891Z,97871.19
2022-12-24T09:05:20.970Z,97878.69
2022-12-24T09:07:50.018Z,97877.78
2022-12-24T09:10:18.607Z,97882.75
2022-12-24T09:12:51.299Z,97884.53
2022-12-24T09:15:21.746Z,97852.22
2022-12-24T09:17:52.365Z,97887.88
2022-12-24T09:20:21.508Z,97882.69
2022-12-24T09:22:52.912Z,97893.00
2022-12-24T09:25:22.193Z,97899.59
2022-12-24T09:27:51.015Z,97899.53
2022-12-24T09:30:22.148Z,97895.13
2022-12-24T09:32:53.304Z,97904.22
2022-12-24T09:35:22.615Z,97903.19
2022-12-24T09:38:03.416Z,97905.66
2022-12-24T09:40:38.038Z,97905.53
2022-12-24T09:43:14.715Z,97905.44
2022-12-24T09:45:51.644Z,97893.41
2022-12-24T09:48:25.826Z,97903.66
2022-12-24T09:51:01.611Z,97896.97
2022-12-24T09:53:40.256Z,97886.03
2022-12-24T09:56:16.683Z,97905.59
2022-12-24T09:58:51.431Z,97897.28
2022-12-24T10:01:22.593Z,97917.47
2022-12-24T10:03:55.389Z,97903.72
2022-12-24T10:06:31.646Z,97906.59
2022-12-24T10:09:10.927Z,97902.34
2022-12-24T10:11:49.104Z,97907.31
2022-12-24T10:14:36.910Z,97886.66
2022-12-24T10:17:22.580Z,97895.03
2022-12-24T10:19:58.395Z,97901.59
2022-12-24T10:22:37.370Z,97896.47
2022-12-24T10:25:18.253Z,97906.56
2022-12-24T10:27:47.996Z,97906.81
2022-12-24T10:30:19.989Z,97915.00
2022-12-24T10:32:55.579Z,97912.28
2022-12-24T10:35:27.986Z,97924.00
2022-12-24T10:37:59.037Z,97908.41
2022-12-24T10:40:38.363Z,97921.50
2022-12-24T10:43:16.783Z,97929.94
2022-12-24T10:45:50.125Z,97917.88
2022-12-24T10:48:27.652Z,97912.72
2022-12-24T10:51:02.461Z,97916.94
2022-12-24T10:53:40.569Z,97925.22
2022-12-24T10:56:13.384Z,97930.06
2022-12-24T10:58:46.443Z,97910.91
2022-12-24T11:01:16.183Z,97920.78
2022-12-24T11:03:47.432Z,97930.16
2022-12-24T11:06:22.040Z,97928.56
2022-12-24T11:08:50.719Z,97938.03
2022-12-24T11:11:26.495Z,97942.53
2022-12-24T11:13:58.583Z,97938.06
2022-12-24T11:16:31.740Z,97927.09
2022-12-24T11:19:04.715Z,97933.31
2022-12-24T11:21:35.914Z,97938.97
2022-12-24T11:24:11.590Z,97935.38
2022-12-24T11:26:44.316Z,97926.06
2022-12-24T11:29:22.521Z,97921.66
2022-12-24T11:31:53.070Z,97926.22
2022-12-24T11:34:31.830Z,97916.41
2022-12-24T11:37:15.087Z,97922.47
2022-12-24T11:39:51.274Z,97927.31
2022-12-24T11:42:29.075Z,97922.28
2022-12-24T11:45:00.159Z,97914.00
2022-12-24T11:47:37.225Z,97925.09
2022-12-24T11:50:27.346Z,97926.72
2022-12-24T11:53:03.164Z,97918.56
2022-12-24T11:55:43.962Z,97913.50
2022-12-24T11:58:25.888Z,97908.31
2022-12-24T12:01:16.036Z,97924.94
2022-12-24T12:03:50.730Z,97917.59
2022-12-24T12:06:32.587Z,97919.41
2022-12-24T12:09:10.081Z,97919.31
2022-12-24T12:11:44.509Z,97927.06
2022-12-24T12:14:22.790Z,97923.66
2022-12-24T12:17:05.830Z,97931.00
2022-12-24T12:19:46.298Z,97934.41
2022-12-24T12:22:30.956Z,97912.16
2022-12-24T12:25:01.562Z,97925.66
2022-12-24T12:27:35.795Z,97924.28
2022-12-24T12:30:08.334Z,97933.66
2022-12-24T12:32:49.436Z,97924.75
2022-12-24T12:35:26.555Z,97937.63
2022-12-24T12:38:01.467Z,97935.97
2022-12-24T12:40:45.533Z,97931.53
2022-12-24T12:43:31.094Z,97907.22
2022-12-24T12:46:12.475Z,97932.41
2022-12-24T12:49:03.165Z,97929.19
2022-12-24T12:51:46.475Z,97929.41
2022-12-24T12:54:34.499Z,97933.69
2022-12-24T12:57:10.248Z,97935.94
2022-12-24T12:59:43.844Z,97927.25
2022-12-24T13:02:37.883Z,97933.47
2022-12-24T13:05:37.614Z,97945.91
2022-12-24T13:08:25.236Z,97942.53
2022-12-24T13:11:14.179Z,97935.63
2022-12-24T13:14:22.590Z,97952.50
2022-12-24T13:17:40.179Z,97946.94
2022-12-24T13:20:30.960Z,97951.66
2022-12-24T13:23:04.240Z,97952.25
2022-12-24T13:25:37.888Z,97947.47
2022-12-24T13:28:35.630Z,97941.88
2022-12-24T13:31:30.337Z,97953.94
2022-12-24T13:34:05.446Z,97957.84
2022-12-24T13:37:05.674Z,97960.50
2022-12-24T13:40:03.646Z,97958.13
2022-12-24T13:42:50.020Z,97970.25
2022-12-24T13:45:46.865Z,97971.44
2022-12-24T13:48:27.726Z,97969.25
2022-12-24T13:50:59.174Z,97972.66
2022-12-24T13:53:36.781Z,97980.22
2022-12-24T13:56:10.894Z,97973.34
2022-12-24T13:58:40.720Z,97983.38
2022-12-24T14:01:15.823Z,97978.41
2022-12-24T14:03:47.607Z,97987.03
2022-12-24T14:06:26.540Z,97971.56
2022-12-24T14:08:58.808Z,97983.72
2022-12-24T14:11:34.558Z,97978.69
2022-12-24T14:14:29.157Z,97977.44
2022-12-24T14:17:01.810Z,97963.47
2022-12-24T14:19:37.521Z,97968.78
2022-12-24T14:22:22.336Z,97987.84
2022-12-24T14:24:56.750Z,98000.06
2022-12-24T14:27:31.458Z,97987.56
2022-12-24T14:30:07.951Z,97975.06
2022-12-24T14:32:40.722Z,97994.34
2022-12-24T14:35:16.441Z,97999.44
2022-12-24T14:37:48.324Z,97996.94
2022-12-24T14:40:20.691Z,98014.09
2022-12-24T14:42:56.658Z,98010.47
2022-12-24T14:45:33.710Z,98013.25
2022-12-24T14:48:13.761Z,98027.94
2022-12-24T14:51:10.139Z,98032.91
2022-12-24T14:54:04.580Z,98019.84
2022-12-24T14:56:34.049Z,98021.59
2022-12-24T14:59:15.985Z,98021.63
2022-12-24T15:01:45.759Z,98014.97
2022-12-24T15:04:20.222Z,98026.16
2022-12-24T15:06:52.868Z,98027.25
2022-12-24T15:09:24.238Z,98024.88
2022-12-24T15:11:55.624Z,98029.47
2022-12-24T15:14:27.370Z,98034.81
2022-12-24T15:17:00.922Z,98042.75
2022-12-24T15:19:39.619Z,98042.75
2022-12-24T15:22:16.049Z,98050.47
2022-12-24T15:24:49.042Z,98045.22
2022-12-24T15:27:19.803Z,98052.69
2022-12-24T15:29:50.758Z,98043.47
2022-12-24T15:32:21.677Z,98033.16
2022-12-24T15:34:53.736Z,98035.00
2022-12-24T15:37:28.684Z,98041.31
2022-12-24T15:40:01.217Z,98035.50
2022-12-24T15:42:31.675Z,98047.56
2022-12-24T15:45:05.503Z,98036.03
2022-12-24T15:47:39.621Z,98044.59
2022-12-24T15:50:16.800Z,98050.59
2022-12-24T15:52:47.253Z,98048.34
2022-12-24T15:55:31.216Z,98068.13
2022-12-24T15:58:00.652Z,98061.56
2022-12-24T16:00:32.807Z,98065.09
2022-12-24T16:03:23.813Z,98075.56
2022-12-24T16:06:02.999Z,98077.50
2022-12-24T16:08:32.982Z,98089.59
2022-12-24T16:11:19.709Z,98082.94
2022-12-24T16:14:08.773Z,98104.34
2022-12-24T16:16:40.496Z,98097.66
2022-12-24T16:19:18.989Z,98106.16
2022-12-24T16:21:54.310Z,98093.34
2022-12-24T16:24:28.087Z,98093.38
2022-12-24T16:26:57.818Z,98091.69
2022-12-24T16:29:28.315Z,98113.00
2022-12-24T16:32:00.797Z,98114.59
2022-12-24T16:34:32.167Z,98115.59
2022-12-24T16:37:02.567Z,98116.44
2022-12-24T16:39:32.771Z,98105.31
2022-12-24T16:42:20.879Z,98116.28
2022-12-24T16:44:49.981Z,98120.63
2022-12-24T16:47:21.871Z,98113.03
2022-12-24T16:49:50.904Z,98120.50
2022-12-24T16:52:22.864Z,98123.84
2022-12-24T16:54:52.070Z,98126.38
2022-12-24T16:57:21.967Z,98127.28
2022-12-24T16:59:51.676Z,98131.31
2022-12-24T17:02:24.210Z,98123.63
2022-12-24T17:04:55.219Z,98126.09
2022-12-24T17:07:31.054Z,98115.81
2022-12-24T17:10:01.881Z,98108.94
2022-12-24T17:12:30.776Z,98123.38
2022-12-24T17:15:00.519Z,98118.97
2022-12-24T17:17:32.684Z,98127.38
2022-12-24T17:20:01.811Z,98109.69
2022-12-24T17:22:35.584Z,98113.97
2022-12-24T17:25:04.885Z,98130.09
2022-12-24T17:27:34.182Z,98131.88
2022-12-24T17:30:03.662Z,98131.09
2022-12-24T17:32:32.806Z,98134.63
2022-12-24T17:35:02.734Z,98143.09
2022-12-24T17:37:33.407Z,98137.19
2022-12-24T17:40:02.272Z,98126.22
2022-12-24T17:42:31.347Z,98131.22
2022-12-24T17:45:00.834Z,98143.19
2022-12-24T17:47:36.511Z,98132.09
2022-12-24T17:50:06.368Z,98137.09
2022-12-24T17:52:36.589Z,98143.91
2022-12-24T17:55:05.791Z,98124.22
2022-12-24T17:57:35.800Z,98130.19
2022-12-24T18:00:04.265Z,98139.47
2022-12-24T18:02:33.032Z,98142.84
2022-12-24T18:05:01.958Z,98145.44
2022-12-24T18:07:31.068Z,98148.88
2022-12-24T18:10:01.802Z,98154.91
2022-12-24T18:12:30.431Z,98164.28
2022-12-24T18:14:59.351Z,98160.06
2022-12-24T18:17:27.965Z,98168.56
2022-12-24T18:19:56.753Z,98165.97
2022-12-24T18:22:26.788Z,98163.44
2022-12-24T18:24:55.197Z,98158.41
2022-12-24T18:27:25.792Z,98171.09
2022-12-24T18:29:54.907Z,98174.47
2022-12-24T18:32:23.692Z,98171.06
2022-12-24T18:34:53.824Z,98170.16
2022-12-24T18:37:22.409Z,98162.53
2022-12-24T18:39:51.061Z,98179.53
2022-12-24T18:42:20.309Z,98164.16
2022-12-24T18:44:50.423Z,98168.47
2022-12-24T18:47:19.494Z,98193.09
2022-12-24T18:49:48.156Z,98202.50
2022-12-24T18:52:22.547Z,98188.81
2022-12-24T18:54:52.884Z,98192.25
2022-12-24T18:57:22.259Z,98193.97
2022-12-24T18:59:53.744Z,98197.28
2022-12-24T19:02:22.565Z,98188.00
2022-12-24T19:04:51.317Z,98183.81
2022-12-24T19:07:20.015Z,98185.41
2022-12-24T19:09:49.315Z,98183.69
2022-12-24T19:12:17.830Z,98182.03
2022-12-24T19:14:46.301Z,98176.88
2022-12-24T19:17:16.732Z,98170.03
2022-12-24T19:19:46.356Z,98161.50
2022-12-24T19:22:15.409Z,98177.72
2022-12-24T19:24:44.734Z,98171.03
2022-12-24T19:27:13.361Z,98164.06
2022-12-24T19:29:42.201Z,98144.53
2022-12-24T19:32:11.290Z,98163.31
2022-12-24T19:34:43.080Z,98160.75
2022-12-24T19:37:11.811Z,98166.72
2022-12-24T19:39:40.465Z,98162.47
2022-12-24T19:42:08.986Z,98171.84
2022-12-24T19:44:39.476Z,98182.13
2022-12-24T19:47:07.941Z,98168.56
2022-12-24T19:49:36.763Z,98174.53
2022-12-24T19:52:07.835Z,98177.09
2022-12-24T19:54:39.182Z,98164.44
2022-12-24T19:57:08.948Z,98190.78
2022-12-24T19:59:39.914Z,98186.50
2022-12-24T20:02:11.739Z,98194.16
2022-12-24T20:04:40.707Z,98209.56
2022-12-24T20:07:11.103Z,98206.94
2022-12-24T20:09:41.479Z,98209.53
2022-12-24T20:12:12.728Z,98221.44
2022-12-24T20:14:41.937Z,98215.47
2022-12-24T20:17:10.620Z,98224.88
2022-12-24T20:19:40.389Z,98219.72
2022-12-24T20:22:10.627Z,98224.88
2022-12-24T20:24:39.340Z,98218.03
2022-12-24T20:27:08.560Z,98225.63
2022-12-24T20:29:37.716Z,98235.00
2022-12-24T20:32:06.995Z,98214.53
2022-12-24T20:34:36.935Z,98229.88
2022-12-24T20:37:06.403Z,98224.75
2022-12-24T20:39:36.663Z,98235.00
2022-12-24T20:42:05.969Z,98240.13
2022-12-24T20:44:34.699Z,98238.44
2022-12-24T20:47:03.882Z,98236.00
2022-12-24T20:49:32.544Z,98245.31
2022-12-24T20:52:01.795Z,98245.47
2022-12-24T20:54:30.696Z,98258.28
2022-12-24T20:57:02.735Z,98266.75
2022-12-24T20:59:31.556Z,98259.88
2022-12-24T21:02:01.071Z,98247.25
2022-12-24T21:04:29.950Z,98242.94
2022-12-24T21:06:58.657Z,98246.38
2022-12-24T21:09:27.632Z,98253.16
2022-12-24T21:12:13.848Z,98253.28
2022-12-24T21:14:45.449Z,98245.59
2022-12-24T21:17:16.135Z,98249.88
2022-12-24T21:19:45.337Z,98257.59
2022-12-24T21:22:13.726Z,98249.06
2022-12-24T21:24:43.634Z,98232.09
2022-12-24T21:27:13.025Z,98239.75
2022-12-24T21:29:44.330Z,98240.56
2022-12-24T21:32:14.086Z,98238.91
2022-12-24T21:34:42.888Z,98233.81
2022-12-24T21:37:11.653Z,98227.06
2022-12-24T21:39:42.541Z,98228.91
2022-12-24T21:42:11.106Z,98234.84
2022-12-24T21:44:40.176Z,98225.38
2022-12-24T21:47:11.456Z,98225.38
2022-12-24T21:49:57.367Z,98227.06
2022-12-24T21:52:26.062Z,98223.75
2022-12-24T21:54:53.787Z,98235.59
2022-12-24T21:57:43.283Z,98233.81
2022-12-24T22:00:27.684Z,98236.47
2022-12-24T22:02:59.706Z,98237.19
2022-12-24T22:05:29.908Z,98237.28
2022-12-24T22:08:16.120Z,98227.16
2022-12-24T22:11:04.756Z,98230.63
2022-12-24T22:13:33.942Z,98244.25
2022-12-24T22:16:03.140Z,98251.03
2022-12-24T22:18:34.279Z,98254.41
2022-12-24T22:21:04.999Z,98241.66
2022-12-24T22:23:38.571Z,98252.72
2022-12-24T22:26:13.847Z,98265.50
2022-12-24T22:28:42.531Z,98258.69
2022-12-24T22:31:19.255Z,98228.16
2022-12-24T22:33:51.401Z,98243.44
2022-12-24T22:36:20.515Z,98240.97
2022-12-24T22:38:50.032Z,98234.94
2022-12-24T22:41:19.622Z,98243.50
2022-12-24T22:43:48.731Z,98244.34
2022-12-24T22:46:18.664Z,98243.53
2022-12-24T22:48:49.497Z,98252.91
2022-12-24T22:51:21.816Z,98231.75
2022-12-24T22:53:51.942Z,98242.78
2022-12-24T22:56:24.176Z,98244.34
2022-12-24T22:58:56.549Z,98251.19
2022-12-24T23:01:36.152Z,98246.09
2022-12-24T23:04:09.090Z,98236.66
2022-12-24T23:06:39.398Z,98233.31
2022-12-24T23:09:11.547Z,98241.75
2022-12-24T23:11:41.537Z,98247.72
2022-12-24T23:14:34.391Z,98244.28
2022-12-24T23:17:03.314Z,98251.09
2022-12-24T23:19:34.064Z,98242.59
2022-12-24T23:22:04.355Z,98244.28
2022-12-24T23:24:33.642Z,98244.28
2022-12-24T23:27:03.129Z,98226.47
2022-12-24T23:29:36.794Z,98240.09
2022-12-24T23:32:07.438Z,98241.81
2022-12-24T23:34:39.120Z,98245.25
2022-12-24T23:37:08.357Z,98242.00
2022-12-24T23:39:37.697Z,98257.22
2022-12-24T23:42:07.213Z,98264.81
2022-12-24T23:44:38.809Z,98242.59
2022-12-24T23:47:08.758Z,98232.38
2022-12-24T23:49:43.139Z,98246.78
2022-12-24T23:52:12.327Z,98245.09
2022-12-24T23:54:43.767Z,98236.69
2022-12-24T23:57:12.471Z,98268.13
2022-12-24T23:59:43.108Z,98245.09
